Time;durP1;ratioP1;P1;durP2;ratioP2;P2;SDS_P1;SDS_P2;PMS_P1;PMS_P2;Temp;Humidity;BMP_temperature;BMP_pressure;BME280_temperature;BME280_humidity;BME280_pressure;Samples;Min_cycle;Max_cycle;Signal;HPM_P1;HPM_P2
2021/12/23 00:01:35;;;;;;;;;69.00;45.00;;;;;0.23;74.65;101066.44;5059904;28;45477;-71
2021/12/23 00:04:01;;;;;;;;;53.25;43.00;;;;;0.06;74.42;101036.16;5055525;28;45434;-72
2021/12/23 00:06:26;;;;;;;;;68.50;53.75;;;;;0.07;75.01;101050.88;5057699;28;45598;-74
2021/12/23 00:08:52;;;;;;;;;68.25;56.25;;;;;0.03;75.09;101041.19;5054651;28;45358;-72
2021/12/23 00:11:17;;;;;;;;;58.00;47.25;;;;;0.08;75.33;101055.25;5055389;28;45436;-74
2021/12/23 00:14:02;;;;;;;;;56.00;45.00;;;;;0.15;75.27;101059.97;5054110;28;45512;-74
2021/12/23 00:24:40;;;;;;;;;56.00;44.25;;;;;0.07;75.21;101020.69;4992142;28;45495;-74
2021/12/23 00:27:06;;;;;;;;;56.75;44.50;;;;;0.11;75.20;101021.75;4991510;28;46092;-71
2021/12/23 00:29:32;;;;;;;;;56.75;45.00;;;;;0.05;75.06;101011.06;4992763;28;45725;-75
2021/12/23 00:31:59;;;;;;;;;61.50;47.25;;;;;0.05;75.43;101013.66;4991569;28;45408;-74
2021/12/23 00:34:24;;;;;;;;;66.00;50.75;;;;;-0.01;75.55;101009.03;4991769;28;46334;-74
2021/12/23 00:36:51;;;;;;;;;59.25;46.00;;;;;0.01;75.89;101012.63;5007436;28;46402;-71
2021/12/23 00:39:17;;;;;;;;;59.25;49.50;;;;;-0.05;75.72;101007.97;5011572;28;45549;-72
2021/12/23 00:41:44;;;;;;;;;59.75;48.00;;;;;-0.02;76.18;101010.72;4976073;28;45583;-72
2021/12/23 00:44:10;;;;;;;;;58.00;49.25;;;;;-0.02;76.33;101004.66;4997333;28;45500;-72
2021/12/23 00:46:36;;;;;;;;;67.75;49.00;;;;;-0.01;76.24;101011.63;4990738;28;45518;-73
2021/12/23 00:49:01;;;;;;;;;57.75;44.25;;;;;-0.14;76.70;100986.75;4991114;28;45459;-72
2021/12/23 00:51:29;;;;;;;;;46.50;42.00;;;;;-0.18;76.10;100983.94;5005978;28;45268;-71
2021/12/23 00:54:03;;;;;;;;;69.50;49.00;;;;;-0.06;76.38;101003.59;5040427;28;45540;-72
2021/12/23 00:56:29;;;;;;;;;66.50;54.00;;;;;-0.11;77.13;100989.50;5054017;28;46400;-72
2021/12/23 00:58:54;;;;;;;;;64.25;50.00;;;;;-0.18;76.52;100973.59;5070406;28;45629;-72
2021/12/23 01:01:20;;;;;;;;;60.75;46.25;;;;;-0.16;76.53;100980.63;5071726;28;45405;-72
2021/12/23 01:03:45;;;;;;;;;54.25;47.25;;;;;-0.10;76.68;100987.81;5053924;28;45459;-71
2021/12/23 01:06:11;;;;;;;;;65.75;50.50;;;;;-0.20;76.88;100981.25;5052973;28;46386;-72
2021/12/23 01:08:36;;;;;;;;;61.25;48.75;;;;;-0.13;77.21;100987.66;5052391;28;45464;-73
2021/12/23 01:11:02;;;;;;;;;58.50;49.25;;;;;-0.17;76.97;100985.72;5053546;28;45325;-73
2021/12/23 01:13:29;;;;;;;;;65.00;48.00;;;;;-0.25;77.29;100972.34;5053914;28;45515;-72
2021/12/23 01:16:02;;;;;;;;;48.00;38.75;;;;;-0.20;77.37;100970.88;5049535;28;45465;-73
2021/12/23 01:18:42;;;;;;;;;67.00;51.00;;;;;-0.09;77.12;100984.44;5053230;28;45400;-72
2021/12/23 01:21:16;;;;;;;;;62.75;44.50;;;;;-0.10;77.25;100985.22;5063190;28;45487;-72
2021/12/23 01:23:51;;;;;;;;;62.50;46.25;;;;;-0.07;77.37;100994.06;5071595;28;45616;-73
2021/12/23 01:26:21;;;;;;;;;63.00;47.25;;;;;-0.12;77.22;100981.66;5072750;28;46179;-72
2021/12/23 01:28:53;;;;;;;;;53.50;46.50;;;;;-0.18;77.03;100963.22;5059572;28;45332;-72
2021/12/23 01:31:19;;;;;;;;;64.25;51.50;;;;;-0.07;77.22;100975.94;5055933;28;46350;-73
2021/12/23 01:33:45;;;;;;;;;55.25;45.25;;;;;-0.15;77.05;100950.44;5047155;28;45445;-74
2021/12/23 01:36:11;;;;;;;;;54.50;43.00;;;;;-0.13;77.14;100956.59;5052963;28;45682;-73
2021/12/23 01:38:36;;;;;;;;;53.50;47.25;;;;;-0.07;77.35;100969.88;5052781;28;46793;-73
2021/12/23 01:41:02;;;;;;;;;56.75;46.75;;;;;-0.10;77.54;100973.16;5054035;28;45528;-72
2021/12/23 01:43:28;;;;;;;;;55.75;45.00;;;;;-0.11;76.88;100961.03;5053690;28;45587;-73
2021/12/23 01:45:53;;;;;;;;;65.50;51.25;;;;;-0.14;77.30;100952.22;5069949;28;45468;-73
2021/12/23 01:48:19;;;;;;;;;60.00;50.00;;;;;-0.11;77.26;100957.56;5073049;28;45508;-73
2021/12/23 01:50:45;;;;;;;;;69.50;52.75;;;;;-0.05;77.27;100969.13;5055426;28;45509;-73
2021/12/23 01:53:11;;;;;;;;;50.50;44.75;;;;;-0.05;77.43;100956.19;5054014;28;45525;-73
2021/12/23 01:55:39;;;;;;;;;50.75;39.50;;;;;0.00;77.20;100946.09;5052810;28;45190;-73
2021/12/23 01:58:06;;;;;;;;;49.75;42.75;;;;;-0.13;76.82;100929.00;5034385;28;46094;-73
2021/12/23 02:00:36;;;;;;;;;57.00;45.75;;;;;-0.09;77.17;100930.97;5052803;28;45346;-73
2021/12/23 02:03:02;;;;;;;;;60.50;45.50;;;;;0.03;76.86;100935.88;5053633;28;46364;-74
2021/12/23 02:05:28;;;;;;;;;66.75;48.50;;;;;0.12;77.15;100941.53;5053045;28;45447;-74
2021/12/23 02:07:54;;;;;;;;;65.25;50.25;;;;;0.13;77.16;100937.25;5052785;28;45248;-75
2021/12/23 02:10:20;;;;;;;;;58.25;46.50;;;;;0.20;76.97;100934.19;5052462;28;46183;-75
2021/12/23 02:12:47;;;;;;;;;55.75;48.25;;;;;0.15;76.95;100920.09;5056650;28;45431;-74
2021/12/23 02:15:14;;;;;;;;;67.25;50.50;;;;;0.15;76.58;100917.50;5060101;28;46680;-74
2021/12/23 02:17:41;;;;;;;;;52.50;41.25;;;;;0.30;76.73;100935.53;5055893;28;45461;-73
2021/12/23 02:20:09;;;;;;;;;64.00;47.50;;;;;0.18;76.39;100913.34;5055995;28;45326;-72
2021/12/23 02:22:34;;;;;;;;;63.75;51.00;;;;;0.29;76.20;100929.47;5056679;28;45577;-74
2021/12/23 02:25:00;;;;;;;;;52.00;45.25;;;;;0.26;76.54;100914.63;5061740;28;46291;-73
2021/12/23 02:27:26;;;;;;;;;64.00;52.00;;;;;0.39;76.13;100943.78;5071654;28;45405;-74
2021/12/23 02:29:52;;;;;;;;;56.00;48.00;;;;;0.36;76.26;100922.88;5055987;28;45356;-73
2021/12/23 02:32:17;;;;;;;;;68.25;55.00;;;;;0.41;76.50;100932.69;5055599;28;45624;-73
2021/12/23 02:34:43;;;;;;;;;61.00;50.50;;;;;0.31;76.35;100908.81;5073029;28;45472;-73
2021/12/23 02:37:08;;;;;;;;;60.25;48.00;;;;;0.40;76.25;100923.13;5056177;28;45887;-74
2021/12/23 02:39:34;;;;;;;;;60.75;52.00;;;;;0.39;75.92;100902.34;5056709;28;45369;-74
2021/12/23 02:41:59;;;;;;;;;66.00;51.00;;;;;0.48;75.89;100914.03;5058874;28;45738;-75
2021/12/23 02:44:25;;;;;;;;;61.75;50.50;;;;;0.49;76.13;100909.75;5058362;28;46426;-74
2021/12/23 02:46:51;;;;;;;;;56.75;49.50;;;;;0.45;76.25;100906.09;5058138;28;45337;-75
2021/12/23 02:49:17;;;;;;;;;65.50;52.75;;;;;0.46;76.17;100900.09;5059088;28;45265;-75
2021/12/23 02:51:43;;;;;;;;;63.25;51.00;;;;;0.53;76.15;100904.78;5059030;28;45461;-74
2021/12/23 02:54:08;;;;;;;;;65.25;52.00;;;;;0.62;75.71;100912.13;5058256;28;45563;-74
2021/12/23 02:56:35;;;;;;;;;62.25;50.25;;;;;0.62;75.87;100899.16;5037521;28;45621;-74
2021/12/23 02:59:01;;;;;;;;;54.50;47.00;;;;;0.64;75.73;100907.03;5039122;28;45326;-74
2021/12/23 03:01:27;;;;;;;;;59.75;48.00;;;;;0.50;75.71;100888.19;5050680;28;45395;-75
2021/12/23 03:03:52;;;;;;;;;69.00;48.25;;;;;0.50;75.62;100880.44;5058404;28;45345;-75
2021/12/23 03:06:20;;;;;;;;;66.25;48.00;;;;;0.55;75.94;100886.72;5058060;28;45410;-74
2021/12/23 03:08:59;;;;;;;;;68.00;51.50;;;;;0.51;75.60;100882.19;5058799;28;45395;-74
2021/12/23 03:11:26;;;;;;;;;60.25;46.75;;;;;0.59;75.63;100901.63;5058896;28;45490;-74
2021/12/23 03:13:52;;;;;;;;;54.25;42.50;;;;;0.35;75.73;100856.31;5058292;28;47441;-74
2021/12/23 03:16:21;;;;;;;;;65.25;48.50;;;;;0.41;75.97;100870.50;5057992;28;45633;-74
2021/12/23 03:18:47;;;;;;;;;70.25;51.75;;;;;0.35;76.35;100858.91;5058590;28;45222;-75
2021/12/23 03:21:13;;;;;;;;;48.50;43.75;;;;;0.53;76.21;100886.63;5058247;28;45510;-72
2021/12/23 03:23:38;;;;;;;;;58.50;49.50;;;;;0.52;75.98;100887.47;5057593;28;46657;-74
2021/12/23 03:26:04;;;;;;;;;63.50;48.25;;;;;0.42;76.29;100866.19;5039817;28;45716;-74
2021/12/23 03:28:30;;;;;;;;;61.75;51.25;;;;;0.50;76.17;100883.03;5058627;28;45430;-74
2021/12/23 03:30:57;;;;;;;;;59.00;51.25;;;;;0.39;76.52;100863.47;5058019;28;45285;-74
2021/12/23 03:33:23;;;;;;;;;64.00;52.50;;;;;0.50;76.56;100875.25;5058404;28;46612;-76
2021/12/23 03:35:48;;;;;;;;;66.75;52.50;;;;;0.52;76.35;100874.50;5057944;28;45354;-74
2021/12/23 03:38:14;;;;;;;;;62.50;52.50;;;;;0.46;76.55;100847.38;5057998;28;45354;-74
2021/12/23 03:40:41;;;;;;;;;55.75;48.50;;;;;0.44;76.23;100846.41;5057942;28;45484;-74
2021/12/23 03:43:06;;;;;;;;;63.00;52.00;;;;;0.46;76.54;100845.66;5058255;28;45463;-74
2021/12/23 03:45:32;;;;;;;;;66.50;50.25;;;;;0.57;76.24;100864.38;5057708;28;45454;-73
2021/12/23 03:47:57;;;;;;;;;69.25;50.00;;;;;0.56;76.56;100857.41;5037960;28;45355;-75
2021/12/23 03:50:24;;;;;;;;;64.25;48.75;;;;;0.46;76.18;100837.00;5041481;28;45219;-74
2021/12/23 03:52:50;;;;;;;;;51.50;44.50;;;;;0.51;76.04;100848.50;5057375;28;46561;-74
2021/12/23 03:55:17;;;;;;;;;61.25;51.25;;;;;0.44;76.60;100825.69;5057887;28;45520;-74
2021/12/23 03:57:42;;;;;;;;;57.25;43.75;;;;;0.55;76.22;100837.47;5057867;28;45370;-73
2021/12/23 04:00:12;;;;;;;;;62.50;47.00;;;;;0.49;76.54;100821.63;5058281;28;45311;-74
2021/12/23 04:02:38;;;;;;;;;70.00;50.00;;;;;0.59;76.73;100854.97;5056524;28;46541;-74
2021/12/23 04:05:06;;;;;;;;;58.25;49.00;;;;;0.52;76.17;100835.63;5057921;28;45267;-74
2021/12/23 04:07:32;;;;;;;;;57.50;51.50;;;;;0.52;76.38;100830.44;5057365;28;45338;-74
2021/12/23 04:09:57;;;;;;;;;65.00;48.50;;;;;0.56;76.88;100823.72;5058233;28;45336;-75
2021/12/23 04:12:23;;;;;;;;;74.50;53.00;;;;;0.52;76.44;100814.88;5040596;28;45951;-75
2021/12/23 04:14:48;;;;;;;;;62.25;52.00;;;;;0.59;76.50;100829.03;5060346;28;45319;-74
2021/12/23 04:17:14;;;;;;;;;64.25;52.50;;;;;0.30;76.69;100775.78;5066850;28;45251;-73
2021/12/23 04:19:40;;;;;;;;;53.75;44.25;;;;;0.39;77.10;100785.72;5065876;28;45243;-73
2021/12/23 04:22:05;;;;;;;;;60.25;51.25;;;;;0.47;76.93;100797.34;5065787;28;45329;-73
2021/12/23 04:24:30;;;;;;;;;62.00;51.75;;;;;0.62;76.85;100817.91;5065944;28;45209;-75
2021/12/23 04:26:56;;;;;;;;;57.25;46.75;;;;;0.61;76.85;100811.84;5065599;28;45552;-75
2021/12/23 04:29:23;;;;;;;;;66.00;49.75;;;;;0.54;76.69;100795.09;5064605;28;45450;-75
2021/12/23 04:31:48;;;;;;;;;64.25;47.25;;;;;0.60;76.86;100799.72;5064720;28;45719;-73
2021/12/23 04:34:14;;;;;;;;;64.75;55.25;;;;;0.61;76.53;100806.66;5064025;28;45233;-74
2021/12/23 04:36:39;;;;;;;;;57.00;46.75;;;;;0.65;76.99;100800.84;5061710;28;45229;-72
2021/12/23 04:39:05;;;;;;;;;48.25;45.00;;;;;0.72;76.19;100804.59;5059015;28;46680;-74
2021/12/23 04:41:33;;;;;;;;;68.00;52.50;;;;;0.67;76.25;100785.34;5057934;28;45997;-74
2021/12/23 04:43:59;;;;;;;;;55.25;45.00;;;;;0.75;76.64;100791.78;5057184;28;45663;-74
2021/12/23 04:46:25;;;;;;;;;54.50;47.25;;;;;0.81;76.45;100799.84;5057383;28;45311;-73
2021/12/23 04:48:51;;;;;;;;;69.50;53.00;;;;;0.78;76.11;100800.59;5057749;28;45369;-74
2021/12/23 04:51:17;;;;;;;;;50.75;44.75;;;;;0.87;76.21;100807.03;5057161;28;45595;-74
2021/12/23 04:53:44;;;;;;;;;67.25;51.25;;;;;0.85;76.47;100801.78;5056959;28;45231;-75
2021/12/23 04:56:11;;;;;;;;;46.50;44.50;;;;;0.90;76.37;100809.75;5057203;28;45257;-73
2021/12/23 04:58:36;;;;;;;;;59.50;50.75;;;;;0.91;76.15;100801.16;5057598;28;45501;-73
2021/12/23 05:01:03;;;;;;;;;61.00;48.00;;;;;0.83;76.24;100782.63;5057219;28;45672;-73
2021/12/23 05:03:29;;;;;;;;;68.00;52.00;;;;;0.81;76.19;100782.56;5057145;28;45473;-74
2021/12/23 05:05:54;;;;;;;;;63.25;50.00;;;;;0.92;75.99;100785.66;5057440;28;45333;-73
2021/12/23 05:08:20;;;;;;;;;63.75;46.25;;;;;0.96;76.36;100785.00;5057704;28;45295;-77
2021/12/23 05:10:46;;;;;;;;;67.50;52.25;;;;;1.00;75.96;100788.63;5038404;28;45531;-72
2021/12/23 05:13:11;;;;;;;;;73.00;53.50;;;;;0.91;76.07;100775.22;5056814;28;45252;-77
2021/12/23 05:15:38;;;;;;;;;68.50;54.50;;;;;0.89;75.94;100762.19;5057331;28;45423;-75
2021/12/23 05:18:04;;;;;;;;;63.75;50.75;;;;;0.77;75.98;100738.28;5057081;28;45259;-74
2021/12/23 05:20:30;;;;;;;;;61.00;48.00;;;;;0.99;76.24;100763.50;5056601;28;45359;-75
2021/12/23 05:22:55;;;;;;;;;58.25;46.50;;;;;1.08;75.73;100770.00;5056422;28;45260;-74
2021/12/23 05:25:21;;;;;;;;;53.00;45.25;;;;;1.05;75.68;100762.09;5057002;28;45529;-73
2021/12/23 05:27:47;;;;;;;;;62.50;53.25;;;;;0.91;75.88;100726.84;5056804;28;45420;-74
2021/12/23 05:30:15;;;;;;;;;39.50;38.50;;;;;1.01;75.23;100747.19;5056480;28;46851;-74
2021/12/23 05:32:42;;;;;;;;;62.00;49.25;;;;;1.09;75.18;100755.31;5056680;28;45465;-74
2021/12/23 05:35:10;;;;;;;;;71.75;46.50;;;;;1.03;75.67;100742.97;5056969;28;45444;-76
2021/12/23 05:37:35;;;;;;;;;70.25;53.00;;;;;0.92;75.67;100720.81;5057245;28;45168;-75
2021/12/23 05:40:01;;;;;;;;;68.25;51.00;;;;;1.05;76.14;100741.34;5056613;28;47581;-75
2021/12/23 05:42:27;;;;;;;;;67.00;51.00;;;;;1.05;75.80;100736.16;5056084;28;45639;-75
2021/12/23 05:44:52;;;;;;;;;67.25;55.50;;;;;1.00;76.21;100726.38;5038851;28;45725;-74
2021/12/23 05:47:17;;;;;;;;;68.25;53.00;;;;;1.03;75.90;100732.59;5060193;28;45317;-75
2021/12/23 05:49:43;;;;;;;;;59.50;50.25;;;;;0.97;75.90;100714.16;5060328;28;46289;-75
2021/12/23 05:52:08;;;;;;;;;67.50;52.50;;;;;1.02;75.98;100728.19;5055221;28;45492;-73
2021/12/23 05:54:34;;;;;;;;;56.50;44.75;;;;;1.01;75.82;100710.88;5059822;28;45419;-74
2021/12/23 05:57:02;;;;;;;;;65.00;51.50;;;;;0.96;75.57;100711.50;5061033;28;45290;-74
2021/12/23 05:59:31;;;;;;;;;62.00;52.75;;;;;1.11;75.86;100730.31;5059938;28;46292;-75
2021/12/23 06:01:58;;;;;;;;;67.50;50.50;;;;;1.13;75.53;100739.97;5041860;28;45397;-75
2021/12/23 06:04:25;;;;;;;;;57.50;46.75;;;;;1.13;75.52;100734.78;5060019;28;45338;-74
2021/12/23 06:06:50;;;;;;;;;77.75;57.00;;;;;1.05;76.01;100727.47;5059760;28;45260;-74
2021/12/23 06:09:16;;;;;;;;;63.25;46.50;;;;;1.12;75.61;100730.44;5041492;28;48146;-75
2021/12/23 06:11:41;;;;;;;;;69.25;53.25;;;;;1.11;76.10;100727.72;5059690;28;45308;-74
2021/12/23 06:14:07;;;;;;;;;59.50;50.25;;;;;1.13;75.83;100724.41;5060187;28;45732;-75
2021/12/23 06:16:32;;;;;;;;;60.50;48.75;;;;;1.12;76.30;100737.31;5060446;28;45359;-74
2021/12/23 06:18:59;;;;;;;;;62.75;50.50;;;;;1.16;76.00;100733.16;5059689;28;46072;-74
2021/12/23 06:21:28;;;;;;;;;61.50;45.75;;;;;1.17;76.00;100730.63;5041843;28;45317;-74
2021/12/23 06:23:53;;;;;;;;;57.25;49.00;;;;;1.05;75.92;100707.63;5059786;28;45385;-74
2021/12/23 06:26:19;;;;;;;;;55.50;46.25;;;;;1.19;76.01;100728.97;5059603;28;45309;-72
2021/12/23 06:28:45;;;;;;;;;66.75;54.50;;;;;1.18;75.99;100732.38;5039274;28;45738;-74
2021/12/23 06:31:10;;;;;;;;;64.25;52.25;;;;;1.10;76.35;100726.84;5039345;28;45256;-74
2021/12/23 06:33:36;;;;;;;;;59.75;49.50;;;;;1.08;76.33;100725.91;5070506;28;45513;-74
2021/12/23 06:36:02;;;;;;;;;63.25;53.00;;;;;1.12;76.78;100733.03;5080022;28;45329;-73
2021/12/23 06:38:28;;;;;;;;;52.50;45.75;;;;;1.17;76.38;100740.09;5079678;28;45196;-74
2021/12/23 06:40:53;;;;;;;;;59.75;45.75;;;;;1.19;76.39;100743.66;5079921;28;45456;-74
2021/12/23 06:43:19;;;;;;;;;68.00;54.25;;;;;1.20;76.87;100745.41;5079497;27;45314;-73
2021/12/23 06:45:45;;;;;;;;;72.00;52.25;;;;;0.99;76.48;100716.81;5064512;28;45223;-74
2021/12/23 06:48:10;;;;;;;;;63.25;47.50;;;;;1.11;76.56;100733.81;5059723;28;45453;-74
2021/12/23 06:50:36;;;;;;;;;67.25;55.25;;;;;1.22;76.63;100741.22;5041442;28;45265;-72
2021/12/23 06:53:01;;;;;;;;;65.00;51.00;;;;;1.22;76.85;100738.63;5059148;28;45216;-75
2021/12/23 06:55:27;;;;;;;;;59.75;47.50;;;;;1.17;76.75;100733.22;5041427;28;45494;-74
2021/12/23 06:57:56;;;;;;;;;67.25;50.50;;;;;1.26;76.91;100740.53;5057882;28;45464;-72
2021/12/23 07:00:23;;;;;;;;;70.25;55.00;;;;;1.26;77.07;100748.31;5059455;28;45356;-73
2021/12/23 07:02:48;;;;;;;;;66.00;51.00;;;;;1.13;77.05;100728.72;5059194;28;45224;-74
2021/12/23 07:05:15;;;;;;;;;74.00;55.00;;;;;1.24;77.03;100747.34;5059525;28;45434;-74
2021/12/23 07:08:29;;;;;;;;;62.25;50.25;;;;;1.29;77.33;100746.72;5058826;28;45575;-72
2021/12/23 07:10:29;;;;;;;;;63.25;47.75;;;;;1.29;77.01;100749.31;5054869;28;45272;-74
2021/12/23 07:12:55;;;;;;;;;67.75;53.75;;;;;1.35;76.60;100756.50;5059425;28;45350;-73
2021/12/23 07:15:23;;;;;;;;;64.75;50.00;;;;;1.36;76.80;100748.78;5059301;28;45357;-75
2021/12/23 07:17:49;;;;;;;;;66.00;52.00;;;;;1.30;76.79;100747.59;5059050;28;45314;-74
2021/12/23 07:20:15;;;;;;;;;60.00;48.50;;;;;1.38;76.96;100759.22;5057794;28;45633;-72
2021/12/23 07:22:41;;;;;;;;;69.50;51.50;;;;;1.21;77.13;100732.53;5058704;28;45208;-72
2021/12/23 07:25:07;;;;;;;;;65.75;55.50;;;;;1.38;76.67;100751.44;5059076;28;45286;-73
2021/12/23 07:27:33;;;;;;;;;67.50;51.75;;;;;1.36;76.74;100751.38;5050192;28;47375;-73
2021/12/23 07:29:58;;;;;;;;;73.25;57.25;;;;;1.49;76.72;100765.81;5058952;28;45374;-72
2021/12/23 07:32:24;;;;;;;;;57.00;47.25;;;;;1.53;76.03;100775.47;5059052;28;45450;-75
2021/12/23 07:34:49;;;;;;;;;62.00;50.25;;;;;1.49;76.24;100755.41;5059030;28;45244;-75
2021/12/23 07:37:15;;;;;;;;;71.50;53.50;;;;;1.54;76.33;100761.69;5058288;28;46628;-73
2021/12/23 07:39:40;;;;;;;;;67.75;56.00;;;;;1.49;76.67;100752.81;5058621;28;45519;-75
2021/12/23 07:42:07;;;;;;;;;65.00;49.75;;;;;1.64;76.58;100766.44;5056992;28;45252;-73
2021/12/23 07:44:36;;;;;;;;;66.75;47.00;;;;;1.69;76.17;100764.06;5064837;28;45368;-75
2021/12/23 07:47:02;;;;;;;;;61.75;51.50;;;;;1.76;76.07;100765.19;5065782;28;45732;-73
2021/12/23 07:49:28;;;;;;;;;69.25;52.50;;;;;1.75;76.06;100764.31;5065407;28;45428;-76
2021/12/23 07:51:54;;;;;;;;;60.75;47.50;;;;;1.71;75.96;100752.03;5067088;28;45329;-72
2021/12/23 07:54:19;;;;;;;;;62.75;52.00;;;;;1.80;76.11;100767.13;5067411;28;45292;-72
2021/12/23 07:56:45;;;;;;;;;63.75;50.75;;;;;1.62;76.10;100721.38;5066078;28;46410;-72
2021/12/23 07:59:10;;;;;;;;;65.75;53.75;;;;;1.88;75.65;100751.03;5067014;28;45388;-72
2021/12/23 08:01:36;;;;;;;;;67.75;52.50;;;;;2.08;75.39;100774.38;5067156;28;45511;-71
2021/12/23 08:04:01;;;;;;;;;73.50;53.75;;;;;2.09;75.18;100756.25;5067931;28;45518;-72
2021/12/23 08:06:27;;;;;;;;;66.50;53.75;;;;;2.07;74.89;100729.31;5061871;28;45431;-75
2021/12/23 08:08:52;;;;;;;;;56.33;45.00;;;;;2.30;74.54;100758.84;5066604;28;45195;-72
2021/12/23 08:11:18;;;;;;;;;62.00;51.00;;;;;2.42;74.24;100758.44;5068435;28;45456;-72
2021/12/23 08:13:43;;;;;;;;;62.00;47.00;;;;;2.45;73.99;100756.88;5066900;28;45508;-72
2021/12/23 08:16:09;;;;;;;;;73.50;54.00;;;;;2.56;74.12;100765.09;5073423;28;46261;-72
2021/12/23 08:18:34;;;;;;;;;65.25;53.75;;;;;2.58;73.53;100755.63;5066140;28;45448;-71
2021/12/23 08:21:01;;;;;;;;;65.50;49.50;;;;;2.60;73.25;100743.56;5062748;28;46273;-72
2021/12/23 08:23:27;;;;;;;;;69.50;52.25;;;;;2.72;73.14;100759.69;5069569;28;45500;-72
2021/12/23 08:25:54;;;;;;;;;64.00;47.67;;;;;2.72;73.05;100751.88;5068209;28;46221;-72
2021/12/23 08:28:19;;;;;;;;;75.00;57.75;;;;;2.58;73.20;100729.63;5051044;28;45466;-73
2021/12/23 08:30:45;;;;;;;;;61.25;48.00;;;;;2.79;72.97;100752.97;5063986;28;45488;-72
2021/12/23 08:33:11;;;;;;;;;59.67;48.00;;;;;2.91;72.84;100768.19;5067479;28;45302;-73
2021/12/23 08:35:37;;;;;;;;;64.33;46.67;;;;;2.81;73.09;100743.53;5064943;28;45409;-77
2021/12/23 08:38:03;;;;;;;;;67.50;51.25;;;;;2.89;72.96;100749.03;5057021;28;45169;-74
2021/12/23 08:40:29;;;;;;;;;55.00;45.00;;;;;2.95;72.87;100749.25;5052236;28;45629;-76
2021/12/23 08:42:57;;;;;;;;;67.00;53.00;;;;;2.94;72.67;100729.28;5055912;28;45576;-75
2021/12/23 08:45:24;;;;;;;;;69.00;55.33;;;;;3.03;72.08;100740.03;5050233;28;46180;-76
2021/12/23 08:47:52;;;;;;;;;49.00;43.33;;;;;3.02;72.22;100740.84;5036691;28;45569;-78
2021/12/23 08:50:19;;;;;;;;;61.67;50.00;;;;;3.18;72.10;100755.34;5049014;28;45640;-78
2021/12/23 08:52:45;;;;;;;;;55.67;49.00;;;;;3.10;72.62;100731.63;5057445;28;46110;-77
2021/12/23 08:55:11;;;;;;;;;66.33;53.00;;;;;3.34;72.14;100747.25;5064042;28;46420;-76
2021/12/23 08:57:38;;;;;;;;;71.33;54.00;;;;;3.42;71.90;100741.47;5068368;28;45544;-76
2021/12/23 09:00:06;;;;;;;;;67.67;55.00;;;;;3.29;71.32;100725.38;5064752;28;45275;-76
2021/12/23 09:02:32;;;;;;;;;72.00;56.00;;;;;3.05;71.28;100694.13;5065344;28;45554;-75
2021/12/23 09:04:57;;;;;;;;;69.00;56.33;;;;;2.61;71.13;100604.06;5058880;28;46381;-75
2021/12/23 09:07:23;;;;;;;;;68.33;48.00;;;;;3.36;71.37;100730.00;5041303;28;45684;-75
2021/12/23 09:09:51;;;;;;;;;69.33;50.33;;;;;3.49;71.59;100746.91;5059851;28;45447;-75
2021/12/23 09:12:20;;;;;;;;;64.67;53.00;;;;;3.07;71.40;100666.44;5062647;28;45392;-76
2021/12/23 09:14:46;;;;;;;;;60.00;47.67;;;;;3.18;71.37;100682.47;5063985;28;45566;-73
2021/12/23 09:17:12;;;;;;;;;63.33;53.00;;;;;3.20;71.42;100699.91;5047702;28;45440;-75
2021/12/23 09:19:37;;;;;;;;;70.67;55.00;;;;;3.37;71.10;100726.53;5058906;28;45693;-75
2021/12/23 09:22:04;;;;;;;;;67.33;53.00;;;;;3.27;71.54;100712.31;5059444;28;45413;-76
2021/12/23 09:24:31;;;;;;;;;58.33;49.00;;;;;3.41;70.79;100718.00;5060462;28;46697;-75
2021/12/23 09:27:07;;;;;;;;;61.67;51.67;;;;;3.64;71.55;100730.13;5059518;28;45467;-74
2021/12/23 09:34:48;;;;;;;;;70.00;52.33;;;;;3.90;71.50;100738.81;5060395;28;45295;-76
2021/12/23 09:37:14;;;;;;;;;66.67;52.00;;;;;3.50;71.30;100675.78;5060017;28;45470;-75
2021/12/23 09:39:40;;;;;;;;;59.00;47.67;;;;;3.98;70.92;100742.56;5060282;28;45391;-78
2021/12/23 09:42:06;;;;;;;;;63.00;50.00;;;;;3.63;71.14;100672.75;5059934;28;45460;-78
2021/12/23 09:44:32;;;;;;;;;60.00;48.00;;;;;3.86;71.05;100710.03;5060218;28;46531;-73
2021/12/23 09:47:03;;;;;;;;;66.00;51.33;;;;;3.80;71.36;100699.38;5060041;28;45358;-75
2021/12/23 09:49:30;;;;;;;;;66.67;51.00;;;;;4.10;71.07;100746.47;5041502;28;45344;-75
2021/12/23 09:51:57;;;;;;;;;64.33;47.33;;;;;3.91;70.92;100690.22;5059618;28;45339;-76
2021/12/23 09:54:25;;;;;;;;;61.00;48.67;;;;;3.84;71.20;100675.22;5040698;28;46426;-77
2021/12/23 09:56:52;;;;;;;;;62.00;47.67;;;;;3.88;70.91;100679.69;5040416;28;45405;-77
2021/12/23 09:59:18;;;;;;;;;63.00;49.00;;;;;4.28;70.90;100739.22;5040332;28;45282;-76
2021/12/23 10:01:44;;;;;;;;;64.67;51.00;;;;;3.77;71.06;100632.44;5039814;28;45230;-76
2021/12/23 10:04:09;;;;;;;;;61.67;49.33;;;;;4.01;71.35;100650.59;5040385;28;45322;-74
2021/12/23 10:06:35;;;;;;;;;62.00;48.33;;;;;3.86;70.68;100609.28;5041364;28;45366;-75
2021/12/23 10:09:01;;;;;;;;;55.00;45.67;;;;;4.38;71.10;100693.47;5040823;28;45157;-75
2021/12/23 10:12:05;;;;;;;;;64.67;51.00;;;;;4.65;70.69;100724.72;5040245;28;45370;-75
2021/12/23 10:31:33;;;;;;;;;59.00;47.33;;;;;4.97;71.26;100679.63;5056350;28;45739;-72
2021/12/23 10:37:16;;;;;;;;;55.67;49.00;;;;;5.01;71.80;100693.63;5064659;28;45946;-71
2021/12/23 10:39:53;;;;;;;;;61.33;48.67;;;;;5.06;71.75;100692.06;5066278;28;45407;-71
2021/12/23 10:42:27;;;;;;;;;61.00;49.00;;;;;4.97;71.95;100650.91;5066348;28;46565;-73
2021/12/23 10:44:54;;;;;;;;;64.00;52.00;;;;;5.14;71.84;100677.50;5066881;28;45495;-74
2021/12/23 10:47:46;;;;;;;;;48.67;44.00;;;;;5.20;72.38;100669.81;5067865;28;46439;-75
2021/12/23 10:50:22;;;;;;;;;61.33;49.00;;;;;5.24;72.43;100673.41;5050807;28;45425;-73
2021/12/23 10:53:08;;;;;;;;;60.00;47.67;;;;;5.26;72.50;100656.94;5054457;28;45502;-72
2021/12/23 10:58:26;;;;;;;;;58.67;47.00;;;;;5.23;72.55;100640.31;5066338;28;45823;-74
2021/12/23 11:01:02;;;;;;;;;60.00;48.00;;;;;5.34;72.42;100650.19;5065954;28;46465;-73
2021/12/23 11:03:38;;;;;;;;;66.33;47.33;;;;;5.43;73.32;100642.59;5069954;28;45453;-74
2021/12/23 11:06:25;;;;;;;;;68.33;50.33;;;;;5.25;72.76;100589.00;5065306;28;45433;-74
2021/12/23 11:09:02;;;;;;;;;58.67;45.00;;;;;5.51;73.12;100639.31;5059155;28;45524;-76
2021/12/23 11:28:54;;;;;;;;;31.67;31.00;;;;;6.11;73.98;100626.91;5066721;28;45514;-78
2021/12/23 11:39:35;;;;;;;;;57.33;46.00;;;;;6.23;73.14;100608.88;5059880;28;45387;-73
2021/12/23 11:42:14;;;;;;;;;47.67;39.00;;;;;6.43;73.16;100630.28;5064652;28;46140;-72
2021/12/23 11:44:41;;;;;;;;;50.33;41.33;;;;;6.42;73.60;100615.44;5064497;28;45447;-73
2021/12/23 11:47:11;;;;;;;;;50.67;42.00;;;;;6.46;73.75;100625.09;5034131;28;45439;-71
2021/12/23 11:49:40;;;;;;;;;57.00;41.67;;;;;6.42;73.33;100602.34;5050860;28;45576;-73
2021/12/23 11:52:06;;;;;;;;;58.00;44.33;;;;;6.62;73.75;100636.81;5022054;28;45511;-72
2021/12/23 11:54:38;;;;;;;;;49.00;41.00;;;;;6.69;73.37;100625.59;5017350;28;45409;-76
2021/12/23 11:57:08;;;;;;;;;42.00;40.00;;;;;6.75;74.22;100617.00;5016510;28;45438;-75
2021/12/23 11:59:37;;;;;;;;;54.00;42.67;;;;;6.83;74.36;100618.03;5010150;28;45398;-74
2021/12/23 12:02:13;;;;;;;;;53.33;41.33;;;;;6.90;74.58;100616.44;5015875;28;46534;-74
2021/12/23 12:04:39;;;;;;;;;45.67;40.67;;;;;6.84;74.26;100591.00;5016369;28;46878;-74
2021/12/23 12:07:23;;;;;;;;;50.50;42.75;;;;;7.00;74.88;100597.44;5008390;28;45454;-74
2021/12/23 12:10:00;;;;;;;;;45.00;40.00;;;;;7.24;73.77;100605.72;5003067;28;45339;-75
2021/12/23 12:12:28;;;;;;;;;47.75;41.00;;;;;7.36;73.95;100612.97;5017356;28;46640;-75
2021/12/23 12:14:55;;;;;;;;;45.50;41.00;;;;;7.46;74.42;100604.41;5017094;28;45262;-73
2021/12/23 12:17:26;;;;;;;;;44.25;38.50;;;;;7.60;74.80;100588.91;5017453;28;45493;-73
2021/12/23 12:20:10;;;;;;;;;41.50;33.75;;;;;7.77;74.89;100589.19;5017689;28;45446;-73